UKLU/UDJ METAR and TAF weather

Enter ICAO airport designator
Station Type Date Time Source
UKLU METAR 2021/09/20 05:00 UTC NOAA

UKLU 200500Z 00000MPS 9999 OVC036 10/07 Q1014 R10/190065 NOSIG


Station Type Date Time Source
UKLU Decoded METAR 2021/09/20 05:00 UTC NOAA

Uzhhorod, Ukraine (UKLU) 48-38-05N 022-15-53E
Sep 20, 2021 - 01:00 AM EDT / 2021.09.20 0500 UTC
Wind: Calm:0
Visibility: greater than 7 mile(s):0
Sky conditions: overcast
Temperature: 50 F (10 C)
Dew Point: 44 F (7 C)
Relative Humidity: 81%
Pressure (altimeter): 29.94 in. Hg (1014 hPa)
ob: UKLU 200500Z 00000MPS 9999 OVC036 10/07 Q1014 R10/190065 NOSIG
cycle: 5

Station Type Date Time Source
UKLU TAF 2021/09/03 09:15 UTC NOAA

TAF TAF UKLU 030802Z 0309/0321 VRB01MPS 9999 NSC
TEMPO 0309/0315 27003MPS

Example: see airport list